Time;durP1;ratioP1;P1;durP2;ratioP2;P2;SDS_P1;SDS_P2;PMS_P1;PMS_P2;Temp;Humidity;BMP_temperature;BMP_pressure;BME280_temperature;BME280_humidity;BME280_pressure;Samples;Min_cycle;Max_cycle;Signal;HPM_P1;HPM_P2
2023/02/26 00:01:59;;;;;;;;;;;;;;;27.74;53.47;101447.00;5094765;27;65703;-40
2023/02/26 00:04:29;;;;;;;;;;;;;;;27.78;53.55;101447.50;5084080;27;69676;-41
2023/02/26 00:06:59;;;;;;;;;;;;;;;27.79;53.71;101451.84;5089205;27;66249;-40
2023/02/26 00:09:30;;;;;;;;;;;;;;;27.79;53.77;101454.56;5089353;27;69174;-41
2023/02/26 00:12:00;;;;;;;;;;;;;;;27.79;53.86;101465.34;5094690;27;65481;-40
2023/02/26 00:14:30;;;;;;;;;;;;;;;27.81;53.87;101457.94;5090457;27;70156;-40
2023/02/26 00:17:18;;;;;;;;;;;;;;;27.78;53.59;101464.50;5096053;27;65844;-40
2023/02/26 00:19:48;;;;;;;;;;;;;;;27.82;53.44;101465.00;5094359;27;70273;-40
2023/02/26 00:22:18;;;;;;;;;;;;;;;27.83;53.61;101469.34;5088880;27;66474;-40
2023/02/26 00:24:48;;;;;;;;;;;;;;;27.85;53.14;101472.72;5085505;27;68699;-41
2023/02/26 00:27:18;;;;;;;;;;;;;;;27.86;53.08;101474.41;5093252;27;66215;-40
2023/02/26 00:29:48;;;;;;;;;;;;;;;27.84;53.38;101485.34;5087063;27;69833;-40
2023/02/26 00:32:18;;;;;;;;;;;;;;;27.87;53.09;101496.81;5096056;27;66483;-40
2023/02/26 00:34:49;;;;;;;;;;;;;;;27.88;52.93;101502.00;5076083;27;70212;-39
2023/02/26 00:37:37;;;;;;;;;;;;;;;27.88;52.62;101501.16;5073595;27;66423;-39
2023/02/26 00:40:16;;;;;;;;;;;;;;;27.87;53.30;101500.34;5088968;27;69985;-41
2023/02/26 00:42:46;;;;;;;;;;;;;;;27.92;53.26;101507.88;5072652;27;65753;-40
2023/02/26 00:45:17;;;;;;;;;;;;;;;27.90;52.02;101499.97;5072914;27;70534;-41
2023/02/26 00:47:56;;;;;;;;;;;;;;;27.82;52.65;101502.75;5074893;27;66356;-39
2023/02/26 00:50:26;;;;;;;;;;;;;;;27.77;52.43;101505.94;5086373;27;70162;-41
2023/02/26 00:53:12;;;;;;;;;;;;;;;27.82;53.01;101516.22;5086533;27;65984;-40
2023/02/26 00:55:41;;;;;;;;;;;;;;;27.85;53.51;101518.53;5088474;27;70703;-39
2023/02/26 00:58:12;;;;;;;;;;;;;;;27.86;52.65;101520.25;5090433;27;66955;-41
2023/02/26 01:00:42;;;;;;;;;;;;;;;27.67;50.73;101520.75;5091433;27;70026;-41
2023/02/26 01:03:12;;;;;;;;;;;;;;;27.63;51.33;101526.47;5076396;27;65767;-45
2023/02/26 01:05:42;;;;;;;;;;;;;;;27.68;51.50;101527.78;5092634;27;69653;-40
2023/02/26 01:08:19;;;;;;;;;;;;;;;27.73;51.80;101531.63;5067333;27;65097;-40
2023/02/26 01:10:49;;;;;;;;;;;;;;;27.77;51.99;101524.81;5084001;27;69861;-40
2023/02/26 01:13:19;;;;;;;;;;;;;;;27.82;52.56;101535.09;5090117;27;67248;-40
2023/02/26 01:15:53;;;;;;;;;;;;;;;27.86;52.24;101539.13;5090001;27;70373;-40
2023/02/26 01:18:37;;;;;;;;;;;;;;;27.90;52.50;101532.31;5072469;27;66537;-41
2023/02/26 01:21:09;;;;;;;;;;;;;;;27.94;52.66;101528.22;5087957;27;70618;-41
2023/02/26 01:23:40;;;;;;;;;;;;;;;27.97;52.73;101519.78;5080551;27;66140;-42
2023/02/26 01:26:16;;;;;;;;;;;;;;;28.00;52.80;101522.09;5090458;27;70987;-40
2023/02/26 01:28:46;;;;;;;;;;;;;;;28.03;53.33;101524.44;5090399;27;66202;-41
2023/02/26 01:31:32;;;;;;;;;;;;;;;28.04;52.96;101515.31;5070648;27;70243;-43
2023/02/26 01:34:06;;;;;;;;;;;;;;;28.17;54.05;101525.44;5090197;27;65481;-40
2023/02/26 01:36:40;;;;;;;;;;;;;;;28.22;53.94;101524.88;5079031;27;70357;-43
2023/02/26 01:39:16;;;;;;;;;;;;;;;28.24;54.50;101522.81;5074816;27;66368;-41
2023/02/26 01:41:47;;;;;;;;;;;;;;;28.25;54.90;101529.88;5079975;27;70919;-40
2023/02/26 01:44:20;;;;;;;;;;;;;;;28.27;54.40;101533.25;5087447;27;66708;-41
2023/02/26 01:46:59;;;;;;;;;;;;;;;28.28;54.66;101529.53;5086372;27;70135;-40
2023/02/26 01:49:30;;;;;;;;;;;;;;;28.27;55.01;101528.69;5092032;27;66164;-41
2023/02/26 01:52:01;;;;;;;;;;;;;;;28.26;54.68;101532.41;5074132;27;70815;-41
2023/02/26 01:54:32;;;;;;;;;;;;;;;28.19;52.84;101536.03;5087913;27;67741;-40
2023/02/26 01:57:05;;;;;;;;;;;;;;;28.10;51.16;101551.47;5069395;27;69920;-40
2023/02/26 01:59:41;;;;;;;;;;;;;;;28.11;51.57;101544.22;5072084;27;68740;-39
2023/02/26 02:02:12;;;;;;;;;;;;;;;28.09;51.35;101536.34;5089570;27;70363;-40
2023/02/26 02:04:43;;;;;;;;;;;;;;;28.07;51.17;101543.75;5078201;27;66909;-40
2023/02/26 02:07:13;;;;;;;;;;;;;;;28.12;51.73;101548.59;5087418;27;69929;-39
2023/02/26 02:09:43;;;;;;;;;;;;;;;28.14;51.44;101550.09;5069896;27;66988;-38
2023/02/26 02:12:30;;;;;;;;;;;;;;;28.17;51.73;101546.19;5089754;27;70811;-40
2023/02/26 02:15:00;;;;;;;;;;;;;;;28.17;52.29;101538.94;5072279;27;67357;-40
2023/02/26 02:17:48;;;;;;;;;;;;;;;28.23;52.14;101542.75;5074308;27;69075;-39
2023/02/26 02:20:37;;;;;;;;;;;;;;;28.29;52.17;101542.00;5091248;27;66725;-41
2023/02/26 02:23:16;;;;;;;;;;;;;;;28.35;51.94;101541.25;5096217;27;70156;-40
2023/02/26 02:25:52;;;;;;;;;;;;;;;28.39;52.13;101542.56;5093492;27;66674;-41
2023/02/26 02:28:34;;;;;;;;;;;;;;;28.44;51.99;101539.31;5093414;27;70310;-41
2023/02/26 02:31:07;;;;;;;;;;;;;;;28.47;51.80;101539.78;5090004;27;65841;-41
2023/02/26 02:34:13;;;;;;;;;;;;;;;28.51;52.15;101537.53;5088288;27;71064;-41
2023/02/26 02:36:44;;;;;;;;;;;;;;;28.58;52.18;101548.41;5021318;28;65851;-41
2023/02/26 02:39:18;;;;;;;;;;;;;;;28.60;52.23;101541.78;5080986;27;70305;-40
2023/02/26 02:41:54;;;;;;;;;;;;;;;28.64;51.76;101544.94;5076549;27;66482;-40
2023/02/26 02:44:25;;;;;;;;;;;;;;;28.66;52.12;101538.34;5093452;27;70934;-41
2023/02/26 02:46:57;;;;;;;;;;;;;;;28.70;51.72;101536.13;5078380;27;66066;-39
2023/02/26 02:49:30;;;;;;;;;;;;;;;28.73;51.77;101543.81;5097321;27;70182;-40
2023/02/26 02:52:09;;;;;;;;;;;;;;;28.76;52.19;101532.66;5095274;27;66260;-40
2023/02/26 02:54:40;;;;;;;;;;;;;;;28.80;52.22;101527.69;5065034;27;68829;-40
2023/02/26 02:57:14;;;;;;;;;;;;;;;28.82;52.08;101523.78;5093455;27;66811;-40
2023/02/26 02:59:46;;;;;;;;;;;;;;;28.84;52.07;101523.59;5101356;27;70124;-41
2023/02/26 03:02:31;;;;;;;;;;;;;;;28.87;51.77;101524.03;5074708;27;65565;-40
2023/02/26 03:05:01;;;;;;;;;;;;;;;28.91;52.16;101519.09;5093286;27;70005;-44
2023/02/26 03:07:33;;;;;;;;;;;;;;;28.91;51.57;101519.91;5079558;27;66342;-43
2023/02/26 03:10:05;;;;;;;;;;;;;;;28.95;51.48;101510.41;5093899;27;70526;-41
2023/02/26 03:12:35;;;;;;;;;;;;;;;28.98;51.87;101501.09;5093715;27;66905;-40
2023/02/26 03:15:05;;;;;;;;;;;;;;;29.01;51.29;101507.97;5063797;27;69290;-41
2023/02/26 03:17:45;;;;;;;;;;;;;;;29.04;51.53;101499.53;5078107;27;66157;-42
2023/02/26 03:20:35;;;;;;;;;;;;;;;29.07;51.77;101493.72;5079217;27;70553;-40
2023/02/26 03:23:20;;;;;;;;;;;;;;;29.10;51.76;101494.16;5091673;27;66207;-41
2023/02/26 03:25:56;;;;;;;;;;;;;;;29.13;51.65;101490.25;5094781;27;70214;-41
2023/02/26 03:28:32;;;;;;;;;;;;;;;29.16;51.58;101481.75;5078562;27;66438;-41
2023/02/26 03:31:09;;;;;;;;;;;;;;;29.18;51.71;101482.41;5078786;27;70720;-41
2023/02/26 03:33:51;;;;;;;;;;;;;;;29.22;51.23;101483.66;5068162;27;66447;-41
2023/02/26 03:36:35;;;;;;;;;;;;;;;29.25;51.31;101471.63;5098642;27;69842;-42
2023/02/26 03:39:24;;;;;;;;;;;;;;;29.28;50.89;101477.50;5084968;27;65602;-41
2023/02/26 03:41:54;;;;;;;;;;;;;;;29.29;51.41;101473.78;5072715;27;70276;-42
2023/02/26 03:44:29;;;;;;;;;;;;;;;29.31;51.31;101471.72;5067896;27;66368;-40
2023/02/26 03:47:01;;;;;;;;;;;;;;;29.33;51.21;101458.81;5093875;27;70544;-42
2023/02/26 03:49:35;;;;;;;;;;;;;;;29.36;51.13;101460.28;5073210;27;66618;-41
2023/02/26 03:52:05;;;;;;;;;;;;;;;29.33;50.81;101464.22;5065671;27;70051;-46
2023/02/26 03:55:08;;;;;;;;;;;;;;;29.27;50.19;101451.50;5071108;27;65922;-44
2023/02/26 03:58:08;;;;;;;;;;;;;;;29.23;49.96;101452.09;5066755;27;70809;-43
2023/02/26 04:00:58;;;;;;;;;;;;;;;29.23;48.56;101441.31;5072542;27;66159;-44
2023/02/26 04:03:32;;;;;;;;;;;;;;;29.20;49.37;101437.13;5056787;27;70312;-44
2023/02/26 04:06:04;;;;;;;;;;;;;;;29.24;49.95;101432.97;5077814;27;65490;-45
2023/02/26 04:08:34;;;;;;;;;;;;;;;29.31;49.36;101427.63;5077541;27;69929;-44
2023/02/26 04:11:08;;;;;;;;;;;;;;;29.38;48.29;101425.81;5073046;27;66217;-44
2023/02/26 04:13:38;;;;;;;;;;;;;;;29.46;48.61;101424.84;5073183;27;70416;-43
2023/02/26 04:16:08;;;;;;;;;;;;;;;29.56;47.54;101430.69;5069415;27;67282;-45
2023/02/26 04:18:38;;;;;;;;;;;;;;;29.61;46.24;101431.81;5097514;27;69333;-45
2023/02/26 04:21:16;;;;;;;;;;;;;;;29.60;47.10;101429.28;5077056;27;65996;-43
2023/02/26 04:23:47;;;;;;;;;;;;;;;29.63;46.84;101426.22;5087627;27;69819;-43
2023/02/26 04:26:17;;;;;;;;;;;;;;;29.66;46.79;101433.09;5073655;27;65990;-44
2023/02/26 04:28:46;;;;;;;;;;;;;;;29.70;46.63;101432.50;5079487;27;69915;-46
2023/02/26 04:31:16;;;;;;;;;;;;;;;29.72;46.63;101425.00;5087622;27;65994;-44
2023/02/26 04:33:47;;;;;;;;;;;;;;;29.75;47.30;101416.50;5077040;27;69808;-43
2023/02/26 04:36:17;;;;;;;;;;;;;;;29.78;47.03;101416.13;5071696;27;66169;-43
2023/02/26 04:38:47;;;;;;;;;;;;;;;29.81;47.21;101412.16;5089205;27;70394;-45
2023/02/26 04:41:17;;;;;;;;;;;;;;;29.83;47.64;101400.09;5077856;27;66753;-44
2023/02/26 04:43:49;;;;;;;;;;;;;;;29.88;47.21;101401.38;5081161;27;69642;-45
2023/02/26 04:46:28;;;;;;;;;;;;;;;29.91;47.22;101392.88;5078250;27;66221;-44
2023/02/26 04:48:59;;;;;;;;;;;;;;;29.93;47.44;101393.50;5075336;27;70713;-45
2023/02/26 04:51:29;;;;;;;;;;;;;;;29.96;47.72;101382.28;5068414;27;66871;-45
2023/02/26 04:53:59;;;;;;;;;;;;;;;29.99;47.44;101384.59;5075038;27;69999;-43
2023/02/26 04:56:31;;;;;;;;;;;;;;;30.00;47.64;101384.34;5090584;27;65939;-44
2023/02/26 04:59:02;;;;;;;;;;;;;;;30.03;47.78;101372.31;5066870;27;69162;-43
2023/02/26 05:01:32;;;;;;;;;;;;;;;30.06;47.19;101371.91;5069657;27;65654;-45
2023/02/26 05:04:05;;;;;;;;;;;;;;;30.08;47.62;101364.41;5078295;27;70563;-45
2023/02/26 05:06:36;;;;;;;;;;;;;;;30.11;47.20;101357.75;5076074;27;66013;-46
2023/02/26 05:09:06;;;;;;;;;;;;;;;30.12;47.11;101349.47;5089848;27;70802;-45
2023/02/26 05:11:36;;;;;;;;;;;;;;;30.14;47.77;101341.94;5071137;27;66260;-43
2023/02/26 05:14:07;;;;;;;;;;;;;;;30.16;47.68;101339.88;5069930;27;70857;-44
2023/02/26 05:16:39;;;;;;;;;;;;;;;30.13;48.14;101332.19;5073657;27;66120;-45
2023/02/26 05:19:09;;;;;;;;;;;;;;;29.84;49.39;101293.63;5088430;27;69748;-42
2023/02/26 05:21:39;;;;;;;;;;;;;;;29.80;48.53;101313.97;5072941;27;66833;-43
2023/02/26 05:24:10;;;;;;;;;;;;;;;29.60;48.43;101304.94;5075750;27;70882;-43
2023/02/26 05:26:41;;;;;;;;;;;;;;;29.35;48.62;101305.44;5070565;27;66335;-43
2023/02/26 05:29:11;;;;;;;;;;;;;;;29.27;48.13;101302.06;5061320;27;69913;-44
2023/02/26 05:31:41;;;;;;;;;;;;;;;29.20;49.56;101296.63;5072152;27;66001;-41
2023/02/26 05:34:11;;;;;;;;;;;;;;;29.16;50.72;101284.53;5074215;27;69878;-41
2023/02/26 05:36:41;;;;;;;;;;;;;;;29.01;49.31;101287.34;5089854;27;66087;-39
2023/02/26 05:39:11;;;;;;;;;;;;;;;28.87;48.01;101286.41;5089640;27;69964;-39
2023/02/26 05:41:41;;;;;;;;;;;;;;;28.74;47.34;101276.34;5092850;27;65305;-43
2023/02/26 05:44:11;;;;;;;;;;;;;;;28.65;46.10;101271.31;5054140;27;70061;-40
2023/02/26 05:46:41;;;;;;;;;;;;;;;28.56;45.82;101264.38;5090593;27;66360;-49
2023/02/26 05:49:11;;;;;;;;;;;;;;;28.48;45.42;101266.19;5087356;27;70313;-41
2023/02/26 05:51:41;;;;;;;;;;;;;;;28.60;44.87;101249.44;5086422;27;66827;-38
2023/02/26 05:54:12;;;;;;;;;;;;;;;28.67;44.07;101248.47;5069668;27;70676;-46
2023/02/26 05:56:42;;;;;;;;;;;;;;;28.68;43.18;101250.13;5096348;27;66952;-39
2023/02/26 05:59:12;;;;;;;;;;;;;;;28.68;42.42;101252.00;5089146;27;70328;-39
2023/02/26 06:01:42;;;;;;;;;;;;;;;28.70;41.93;101241.84;5083256;27;65697;-42
2023/02/26 06:04:12;;;;;;;;;;;;;;;28.66;41.70;101235.16;5089109;27;69690;-41
2023/02/26 06:06:42;;;;;;;;;;;;;;;28.65;41.60;101222.72;5066262;27;65952;-39
2023/02/26 06:09:12;;;;;;;;;;;;;;;28.67;41.03;101226.06;5071289;27;69915;-39
2023/02/26 06:11:43;;;;;;;;;;;;;;;28.62;40.70;101221.22;5086645;27;65711;-40
2023/02/26 06:14:12;;;;;;;;;;;;;;;27.69;40.39;101069.38;5088595;27;70710;-39
2023/02/26 06:16:42;;;;;;;;;;;;;;;28.62;39.71;101217.72;5094871;27;66533;-39
2023/02/26 06:19:12;;;;;;;;;;;;;;;28.59;40.12;101202.75;5078378;27;70537;-39
2023/02/26 06:21:42;;;;;;;;;;;;;;;28.58;39.39;101197.53;5085151;27;65834;-39
2023/02/26 06:24:12;;;;;;;;;;;;;;;28.58;39.40;101195.66;5072443;27;69856;-39
2023/02/26 06:26:42;;;;;;;;;;;;;;;28.59;39.56;101191.13;5090583;27;66610;-40
2023/02/26 06:29:12;;;;;;;;;;;;;;;28.60;39.19;101188.19;5094549;27;70056;-40
2023/02/26 06:31:42;;;;;;;;;;;;;;;28.54;39.12;101190.88;5094841;27;65566;-41
2023/02/26 06:34:12;;;;;;;;;;;;;;;28.54;38.50;101193.56;5084613;27;70505;-39
2023/02/26 06:36:43;;;;;;;;;;;;;;;28.57;39.03;101187.78;5092144;27;65683;-40
2023/02/26 06:39:13;;;;;;;;;;;;;;;28.52;38.49;101175.69;5091199;27;70184;-40
2023/02/26 06:41:43;;;;;;;;;;;;;;;28.55;38.30;101168.22;5093377;27;65602;-40
2023/02/26 06:44:13;;;;;;;;;;;;;;;28.56;38.18;101176.16;5082890;27;69817;-40
2023/02/26 06:46:43;;;;;;;;;;;;;;;28.52;38.22;101170.28;5096625;27;65769;-40
2023/02/26 06:49:13;;;;;;;;;;;;;;;28.58;38.17;101165.13;5093951;27;69895;-40
2023/02/26 06:51:42;;;;;;;;;;;;;;;28.58;38.32;101162.44;5096984;27;65472;-40
2023/02/26 06:54:12;;;;;;;;;;;;;;;28.54;38.12;101162.00;5087120;27;70184;-40
2023/02/26 06:56:42;;;;;;;;;;;;;;;28.60;38.53;101146.88;5092046;27;66504;-40
2023/02/26 06:59:14;;;;;;;;;;;;;;;28.64;38.62;101145.44;5082839;27;69684;-39
2023/02/26 07:01:44;;;;;;;;;;;;;;;28.65;38.23;101141.72;5080198;27;65639;-39
2023/02/26 07:04:14;;;;;;;;;;;;;;;28.70;38.76;101133.88;5089301;27;70742;-41
2023/02/26 07:06:47;;;;;;;;;;;;;;;28.70;38.36;101133.88;5097444;27;66656;-39
2023/02/26 07:09:18;;;;;;;;;;;;;;;28.71;38.09;101130.97;5095973;27;70467;-39
2023/02/26 07:11:48;;;;;;;;;;;;;;;28.72;38.50;101119.16;5070595;27;66850;-41
2023/02/26 07:14:18;;;;;;;;;;;;;;;28.77;38.39;101123.94;5090910;27;68646;-40
2023/02/26 07:16:48;;;;;;;;;;;;;;;28.81;38.28;101119.81;5098981;27;65771;-38
2023/02/26 07:19:18;;;;;;;;;;;;;;;28.82;37.89;101115.22;5069253;27;69793;-40
2023/02/26 07:21:48;;;;;;;;;;;;;;;28.84;37.72;101108.59;5074776;27;66861;-39
2023/02/26 07:24:18;;;;;;;;;;;;;;;28.84;37.70;101114.00;5092921;27;69351;-40
2023/02/26 07:26:48;;;;;;;;;;;;;;;28.84;37.42;101103.19;5088535;27;66387;-39
2023/02/26 07:29:18;;;;;;;;;;;;;;;28.83;37.27;101101.50;5094592;27;70466;-39
2023/02/26 07:31:48;;;;;;;;;;;;;;;28.85;37.64;101104.03;5066300;27;66105;-39
2023/02/26 07:34:18;;;;;;;;;;;;;;;28.87;37.27;101108.19;5091062;27;71296;-42
2023/02/26 07:36:48;;;;;;;;;;;;;;;28.91;37.07;101100.53;5089338;27;66225;-40
2023/02/26 07:39:18;;;;;;;;;;;;;;;28.98;37.03;101097.88;5095357;27;68700;-39
2023/02/26 07:41:48;;;;;;;;;;;;;;;28.98;37.22;101097.88;5096358;27;66856;-40
2023/02/26 07:44:18;;;;;;;;;;;;;;;29.00;36.68;101098.47;5094764;27;69686;-40
2023/02/26 07:46:48;;;;;;;;;;;;;;;29.02;37.34;101093.72;5075007;27;66860;-41
2023/02/26 07:49:19;;;;;;;;;;;;;;;29.06;37.50;101084.19;5063022;27;69796;-40
2023/02/26 07:51:49;;;;;;;;;;;;;;;29.10;37.26;101090.84;5078155;27;66981;-41
2023/02/26 07:54:19;;;;;;;;;;;;;;;29.15;37.56;101085.69;5095349;27;69878;-39
2023/02/26 07:56:49;;;;;;;;;;;;;;;29.19;37.46;101073.41;5093198;27;66677;-42
2023/02/26 07:59:19;;;;;;;;;;;;;;;29.22;38.22;101073.00;5068378;27;70178;-41
2023/02/26 08:01:49;;;;;;;;;;;;;;;29.20;37.76;101068.84;5092221;27;66125;-41
2023/02/26 08:04:20;;;;;;;;;;;;;;;29.31;38.22;101073.63;5092138;27;69938;-40
2023/02/26 08:06:50;;;;;;;;;;;;;;;29.43;38.83;101074.72;5093605;27;66407;-40
2023/02/26 08:09:20;;;;;;;;;;;;;;;29.32;39.24;101019.41;5092911;27;69642;-39
2023/02/26 08:11:51;;;;;;;;;;;;;;;29.71;39.10;101066.44;5091161;27;66225;-39
2023/02/26 08:14:23;;;;;;;;;;;;;;;29.83;39.13;101063.94;5074824;27;69824;-39
2023/02/26 08:16:53;;;;;;;;;;;;;;;30.00;41.42;101069.75;5071193;27;67035;-40
2023/02/26 08:19:23;;;;;;;;;;;;;;;30.13;41.94;101072.44;5074828;27;70743;-40
2023/02/26 08:21:54;;;;;;;;;;;;;;;30.26;42.52;101064.34;5088162;27;66575;-40
2023/02/26 08:24:24;;;;;;;;;;;;;;;30.37;43.26;101059.28;5093046;27;69924;-40
2023/02/26 08:26:55;;;;;;;;;;;;;;;30.34;42.13;101046.19;5070827;27;66442;-40
2023/02/26 08:29:25;;;;;;;;;;;;;;;30.23;41.67;101053.13;5092254;27;70423;-42
2023/02/26 08:31:55;;;;;;;;;;;;;;;30.15;40.79;101048.72;5094633;27;66126;-41
2023/02/26 08:34:26;;;;;;;;;;;;;;;30.05;40.27;101051.84;5091920;27;70550;-41
2023/02/26 08:36:56;;;;;;;;;;;;;;;30.11;40.89;101050.19;5097620;27;66621;-41
2023/02/26 08:39:26;;;;;;;;;;;;;;;30.22;41.00;101052.25;5096513;27;70382;-41
2023/02/26 08:41:56;;;;;;;;;;;;;;;30.30;41.73;101053.09;5091760;27;66537;-42
2023/02/26 08:44:26;;;;;;;;;;;;;;;30.30;42.58;101053.09;5095137;27;70597;-42
2023/02/26 08:46:56;;;;;;;;;;;;;;;30.30;42.28;101053.09;5089428;27;66291;-40
2023/02/26 08:49:26;;;;;;;;;;;;;;;30.29;43.06;101052.25;5088851;27;70533;-41
2023/02/26 08:51:56;;;;;;;;;;;;;;;30.44;44.42;101049.28;5087759;27;66019;-39
2023/02/26 08:54:26;;;;;;;;;;;;;;;30.55;45.03;101045.91;5091764;27;70316;-43
2023/02/26 08:56:56;;;;;;;;;;;;;;;30.66;44.82;101050.66;5068696;27;66463;-40
2023/02/26 08:59:29;;;;;;;;;;;;;;;30.79;44.75;101046.25;5086756;27;69687;-42
2023/02/26 09:01:59;;;;;;;;;;;;;;;30.89;45.22;101046.63;5072264;27;66696;-41
2023/02/26 09:04:32;;;;;;;;;;;;;;;30.96;45.68;101047.44;5089047;27;62258;-41
2023/02/26 09:07:02;;;;;;;;;;;;;;;31.01;45.66;101049.47;5094841;27;66650;-41
2023/02/26 09:09:33;;;;;;;;;;;;;;;31.08;45.97;101048.41;5075291;27;69633;-42
2023/02/26 09:12:03;;;;;;;;;;;;;;;31.14;46.12;101055.66;5088504;27;66813;-42
2023/02/26 09:14:33;;;;;;;;;;;;;;;31.26;45.53;101052.25;5088688;27;70405;-42
2023/02/26 09:17:03;;;;;;;;;;;;;;;31.39;44.56;101054.88;5096199;27;67031;-41
2023/02/26 09:19:33;;;;;;;;;;;;;;;31.48;43.09;101067.16;5077269;27;70347;-43
2023/02/26 09:22:04;;;;;;;;;;;;;;;31.61;41.05;101072.44;5101610;27;66635;-44
2023/02/26 09:24:34;;;;;;;;;;;;;;;31.31;42.01;101028.03;5097032;27;69921;-43
2023/02/26 09:27:04;;;;;;;;;;;;;;;31.60;42.84;101081.66;5074663;27;66343;-43
2023/02/26 09:29:34;;;;;;;;;;;;;;;31.60;43.54;101076.22;5091228;27;70887;-40
2023/02/26 09:32:07;;;;;;;;;;;;;;;31.59;44.54;101085.41;5094149;27;64933;-43
2023/02/26 09:34:37;;;;;;;;;;;;;;;31.59;45.23;101080.00;5092089;27;70176;-42
2023/02/26 09:37:08;;;;;;;;;;;;;;;31.61;46.06;101080.59;5087793;27;66708;-43
2023/02/26 09:39:38;;;;;;;;;;;;;;;31.69;46.63;101078.66;5090139;27;69892;-42
2023/02/26 09:42:21;;;;;;;;;;;;;;;31.93;46.13;101077.84;5078991;27;66328;-41
2023/02/26 09:44:52;;;;;;;;;;;;;;;32.11;45.91;101081.66;5086197;27;70433;-42
2023/02/26 09:47:26;;;;;;;;;;;;;;;32.24;45.37;101086.94;5093041;27;65762;-43
2023/02/26 09:50:04;;;;;;;;;;;;;;;32.34;44.98;101089.94;5091599;27;72463;-45
2023/02/26 09:52:39;;;;;;;;;;;;;;;32.43;45.14;101087.75;5071264;27;65332;-42
2023/02/26 09:55:12;;;;;;;;;;;;;;;32.47;44.57;101095.28;5064006;27;70585;-42
2023/02/26 09:57:44;;;;;;;;;;;;;;;32.55;44.42;101098.75;5091619;27;67182;-41
2023/02/26 10:00:23;;;;;;;;;;;;;;;32.58;44.07;101114.59;5083737;27;69776;-43
2023/02/26 10:03:06;;;;;;;;;;;;;;;32.62;43.82;101115.78;5092429;27;67424;-42
2023/02/26 10:05:40;;;;;;;;;;;;;;;32.65;44.14;101112.63;5071479;27;70255;-41
2023/02/26 10:08:14;;;;;;;;;;;;;;;32.68;44.36;101114.88;5067324;27;65350;-41
2023/02/26 10:10:50;;;;;;;;;;;;;;;32.69;44.47;101127.41;5097406;27;70464;-40
2023/02/26 10:13:22;;;;;;;;;;;;;;;32.71;44.43;101130.75;5091179;27;66700;-41
2023/02/26 10:15:56;;;;;;;;;;;;;;;32.73;44.64;101131.31;5091861;27;70198;-42
2023/02/26 10:18:29;;;;;;;;;;;;;;;32.74;44.50;101132.19;5072858;27;66289;-41
2023/02/26 10:21:19;;;;;;;;;;;;;;;32.73;44.79;101131.31;5088416;27;69519;-41
2023/02/26 10:23:55;;;;;;;;;;;;;;;32.76;45.03;101143.63;5077650;27;66678;-41
2023/02/26 10:26:38;;;;;;;;;;;;;;;32.75;45.19;101141.97;5093663;27;69597;-41
2023/02/26 10:29:19;;;;;;;;;;;;;;;32.76;45.30;101147.16;5093751;27;66979;-41
2023/02/26 10:32:08;;;;;;;;;;;;;;;32.74;45.44;101145.75;5084642;27;70409;-41
2023/02/26 10:35:07;;;;;;;;;;;;;;;32.72;45.74;101154.94;5094639;27;66340;-42
2023/02/26 10:37:51;;;;;;;;;;;;;;;32.72;45.46;101156.84;5088609;27;70719;-41
2023/02/26 10:40:33;;;;;;;;;;;;;;;32.73;45.71;101161.22;5093609;27;65829;-41
2023/02/26 10:43:23;;;;;;;;;;;;;;;32.71;45.77;101168.78;5091570;27;69019;-41
2023/02/26 10:46:01;;;;;;;;;;;;;;;32.69;45.83;101170.88;5082759;27;66652;-40
2023/02/26 10:48:53;;;;;;;;;;;;;;;32.68;46.02;101169.19;5092612;27;69846;-42
2023/02/26 10:51:25;;;;;;;;;;;;;;;32.67;46.02;101183.84;5095818;27;66053;-41
2023/02/26 10:54:01;;;;;;;;;;;;;;;32.65;46.24;101186.81;5092393;27;69470;-41
2023/02/26 10:56:32;;;;;;;;;;;;;;;32.64;46.30;101193.28;5093679;27;67067;-42
2023/02/26 10:59:02;;;;;;;;;;;;;;;32.63;46.21;101201.66;5090601;27;70712;-42
2023/02/26 11:01:32;;;;;;;;;;;;;;;32.61;46.28;101199.16;5098843;27;66147;-41
2023/02/26 11:04:06;;;;;;;;;;;;;;;32.58;46.67;101196.91;5080352;27;70309;-43
2023/02/26 11:06:47;;;;;;;;;;;;;;;32.57;46.70;101199.81;5096847;27;65683;-42
2023/02/26 11:09:26;;;;;;;;;;;;;;;32.56;46.77;101204.44;5091150;27;70852;-41
2023/02/26 11:12:12;;;;;;;;;;;;;;;32.55;46.89;101218.25;5081741;27;66442;-41
2023/02/26 11:14:42;;;;;;;;;;;;;;;32.56;46.95;101225.31;5080482;27;69236;-41
2023/02/26 11:17:28;;;;;;;;;;;;;;;32.53;46.79;101236.66;5094036;27;66613;-42
2023/02/26 11:20:04;;;;;;;;;;;;;;;32.52;46.89;101224.13;5092890;27;70298;-41
2023/02/26 11:22:36;;;;;;;;;;;;;;;32.49;46.93;101242.53;5091805;27;66525;-42
2023/02/26 11:25:06;;;;;;;;;;;;;;;32.32;47.25;101224.25;5094890;27;69970;-41
2023/02/26 11:27:37;;;;;;;;;;;;;;;32.44;47.13;101255.91;5091097;27;66433;-41
2023/02/26 11:30:17;;;;;;;;;;;;;;;32.43;47.46;101253.38;5093721;27;70407;-40
2023/02/26 11:32:52;;;;;;;;;;;;;;;32.41;47.59;101255.53;5066140;27;66015;-42
2023/02/26 11:35:23;;;;;;;;;;;;;;;32.38;47.64;101266.81;5073336;27;69987;-44
2023/02/26 11:37:55;;;;;;;;;;;;;;;32.36;47.81;101272.47;5085593;27;67178;-41
2023/02/26 11:40:38;;;;;;;;;;;;;;;32.33;49.22;101286.47;5097302;27;70299;-40
2023/02/26 11:43:11;;;;;;;;;;;;;;;32.03;50.52;101294.41;5095279;27;65251;-40
2023/02/26 11:45:42;;;;;;;;;;;;;;;31.85;51.15;101297.00;5091100;27;70346;-41
2023/02/26 11:48:21;;;;;;;;;;;;;;;31.73;51.98;101296.84;5086749;27;65678;-45
2023/02/26 11:50:54;;;;;;;;;;;;;;;31.61;52.84;101294.81;5079952;27;70013;-42
2023/02/26 11:53:27;;;;;;;;;;;;;;;31.69;52.68;101295.63;5093545;27;65774;-40
2023/02/26 11:56:01;;;;;;;;;;;;;;;31.81;52.29;101299.31;5092909;27;70410;-42
2023/02/26 11:58:35;;;;;;;;;;;;;;;31.90;51.83;101300.75;5092262;27;66745;-40
2023/02/26 12:01:07;;;;;;;;;;;;;;;31.95;51.47;101298.22;5088710;27;70052;-40
2023/02/26 12:03:41;;;;;;;;;;;;;;;31.98;51.25;101300.50;5085698;27;66297;-42
2023/02/26 12:06:19;;;;;;;;;;;;;;;31.81;51.31;101266.75;5086016;27;69575;-41
2023/02/26 12:08:49;;;;;;;;;;;;;;;32.00;51.14;101309.25;5088683;27;65021;-42
2023/02/26 12:11:19;;;;;;;;;;;;;;;32.01;51.07;101308.22;5086806;27;70605;-40
2023/02/26 12:14:08;;;;;;;;;;;;;;;32.02;51.11;101311.75;5074388;27;65903;-43
2023/02/26 12:16:59;;;;;;;;;;;;;;;32.01;51.16;101310.94;5083045;27;69528;-40
2023/02/26 12:19:35;;;;;;;;;;;;;;;32.01;50.92;101318.22;5086944;27;66294;-42
2023/02/26 12:22:25;;;;;;;;;;;;;;;31.88;51.90;101319.09;5089089;27;69995;-43
2023/02/26 12:25:03;;;;;;;;;;;;;;;31.75;52.45;101311.03;5092568;27;67134;-43
2023/02/26 12:27:32;;;;;;;;;;;;;;;31.74;53.02;101320.22;5092567;27;70287;-44
2023/02/26 12:30:10;;;;;;;;;;;;;;;31.72;53.56;101325.03;5075773;27;65533;-41
2023/02/26 12:32:58;;;;;;;;;;;;;;;31.68;53.15;101326.50;5085886;27;70458;-43
2023/02/26 12:35:40;;;;;;;;;;;;;;;31.69;53.75;101328.16;5091000;27;66292;-41
2023/02/26 12:38:13;;;;;;;;;;;;;;;31.68;53.93;101337.34;5091161;27;70141;-43
2023/02/26 12:41:01;;;;;;;;;;;;;;;31.64;54.02;101346.97;5087120;27;66352;-41
2023/02/26 12:43:52;;;;;;;;;;;;;;;31.58;54.54;101349.47;5085827;27;70376;-42
2023/02/26 12:46:31;;;;;;;;;;;;;;;31.57;54.30;101353.25;5093115;27;67131;-40
2023/02/26 12:49:20;;;;;;;;;;;;;;;31.55;54.21;101349.09;5095498;27;69915;-42
2023/02/26 12:52:02;;;;;;;;;;;;;;;31.55;54.47;101347.19;5088104;27;66308;-41
2023/02/26 12:54:51;;;;;;;;;;;;;;;31.51;54.23;101345.13;5089758;27;69920;-40
2023/02/26 12:57:27;;;;;;;;;;;;;;;31.52;54.29;101349.50;5083085;27;67136;-40
2023/02/26 13:00:00;;;;;;;;;;;;;;;31.45;54.50;101354.94;5078550;27;70889;-41
2023/02/26 13:02:54;;;;;;;;;;;;;;;31.46;54.72;101353.09;5080342;27;65979;-41
2023/02/26 13:05:36;;;;;;;;;;;;;;;31.42;54.67;101359.97;5067519;27;69948;-42
2023/02/26 13:08:32;;;;;;;;;;;;;;;31.39;55.04;101366.63;5097400;27;66390;-40
2023/02/26 13:11:33;;;;;;;;;;;;;;;31.37;54.72;101374.16;5089910;27;70058;-40